sensor_id;sensor_type;location;lat;lon;timestamp;P1;durP1;ratioP1;P2;durP2;ratioP2
51738;SDS011;37815;52.692;6.226;2022-12-07T00:03:32;3.63;;;1.38;;
51738;SDS011;37815;52.692;6.226;2022-12-07T00:08:34;3.55;;;1.20;;
51738;SDS011;37815;52.692;6.226;2022-12-07T00:13:36;2.20;;;0.82;;
51738;SDS011;37815;52.692;6.226;2022-12-07T00:18:37;2.30;;;1.08;;
51738;SDS011;37815;52.692;6.226;2022-12-07T00:23:42;3.33;;;0.90;;
51738;SDS011;37815;52.692;6.226;2022-12-07T00:28:47;2.15;;;1.15;;
51738;SDS011;37815;52.692;6.226;2022-12-07T00:33:49;3.28;;;0.98;;
51738;SDS011;37815;52.692;6.226;2022-12-07T00:38:50;4.82;;;1.25;;
51738;SDS011;37815;52.692;6.226;2022-12-07T00:43:51;4.90;;;1.10;;
51738;SDS011;37815;52.692;6.226;2022-12-07T00:48:52;3.22;;;0.85;;
51738;SDS011;37815;52.692;6.226;2022-12-07T00:53:53;4.35;;;1.83;;
51738;SDS011;37815;52.692;6.226;2022-12-07T00:58:55;2.15;;;1.02;;
51738;SDS011;37815;52.692;6.226;2022-12-07T01:04:00;2.30;;;0.80;;
51738;SDS011;37815;52.692;6.226;2022-12-07T01:09:02;4.97;;;1.35;;
51738;SDS011;37815;52.692;6.226;2022-12-07T01:14:03;7.68;;;1.10;;
51738;SDS011;37815;52.692;6.226;2022-12-07T01:19:04;8.43;;;1.13;;
51738;SDS011;37815;52.692;6.226;2022-12-07T01:24:06;4.68;;;1.15;;
51738;SDS011;37815;52.692;6.226;2022-12-07T01:29:09;4.60;;;1.00;;
51738;SDS011;37815;52.692;6.226;2022-12-07T01:34:09;6.35;;;1.00;;
51738;SDS011;37815;52.692;6.226;2022-12-07T01:39:10;3.92;;;0.90;;
51738;SDS011;37815;52.692;6.226;2022-12-07T01:54:30;5.63;;;1.20;;
51738;SDS011;37815;52.692;6.226;2022-12-07T01:59:32;4.30;;;1.15;;
51738;SDS011;37815;52.692;6.226;2022-12-07T02:04:34;5.75;;;1.20;;
51738;SDS011;37815;52.692;6.226;2022-12-07T02:09:35;5.50;;;1.33;;
51738;SDS011;37815;52.692;6.226;2022-12-07T02:14:36;5.20;;;0.80;;
51738;SDS011;37815;52.692;6.226;2022-12-07T02:25:22;3.83;;;0.90;;
51738;SDS011;37815;52.692;6.226;2022-12-07T02:30:31;4.32;;;1.10;;
51738;SDS011;37815;52.692;6.226;2022-12-07T02:35:41;5.65;;;1.15;;
51738;SDS011;37815;52.692;6.226;2022-12-07T02:41:04;4.55;;;0.88;;
51738;SDS011;37815;52.692;6.226;2022-12-07T02:46:15;4.68;;;0.95;;
51738;SDS011;37815;52.692;6.226;2022-12-07T02:51:21;6.93;;;0.70;;
51738;SDS011;37815;52.692;6.226;2022-12-07T03:18:12;5.00;;;0.80;;
51738;SDS011;37815;52.692;6.226;2022-12-07T03:23:16;2.45;;;0.40;;
51738;SDS011;37815;52.692;6.226;2022-12-07T03:28:19;2.60;;;0.70;;
51738;SDS011;37815;52.692;6.226;2022-12-07T03:33:29;5.63;;;1.10;;
51738;SDS011;37815;52.692;6.226;2022-12-07T03:38:45;1.25;;;0.60;;
51738;SDS011;37815;52.692;6.226;2022-12-07T03:43:51;2.70;;;0.73;;
51738;SDS011;37815;52.692;6.226;2022-12-07T03:48:59;3.03;;;0.55;;
51738;SDS011;37815;52.692;6.226;2022-12-07T03:59:07;3.45;;;0.60;;
51738;SDS011;37815;52.692;6.226;2022-12-07T04:04:08;5.30;;;0.50;;
51738;SDS011;37815;52.692;6.226;2022-12-07T04:09:08;1.52;;;0.50;;
51738;SDS011;37815;52.692;6.226;2022-12-07T04:14:09;5.93;;;0.93;;
51738;SDS011;37815;52.692;6.226;2022-12-07T04:19:20;2.33;;;0.80;;
51738;SDS011;37815;52.692;6.226;2022-12-07T04:24:22;3.60;;;0.52;;
51738;SDS011;37815;52.692;6.226;2022-12-07T04:29:24;3.80;;;0.50;;
51738;SDS011;37815;52.692;6.226;2022-12-07T04:34:25;1.95;;;0.43;;
51738;SDS011;37815;52.692;6.226;2022-12-07T04:39:29;2.75;;;0.35;;
51738;SDS011;37815;52.692;6.226;2022-12-07T04:44:31;2.83;;;0.40;;
51738;SDS011;37815;52.692;6.226;2022-12-07T04:49:32;0.73;;;0.38;;
51738;SDS011;37815;52.692;6.226;2022-12-07T04:54:33;3.35;;;0.80;;
51738;SDS011;37815;52.692;6.226;2022-12-07T04:59:34;3.80;;;0.40;;
51738;SDS011;37815;52.692;6.226;2022-12-07T05:04:35;1.40;;;0.40;;
51738;SDS011;37815;52.692;6.226;2022-12-07T05:09:35;1.88;;;0.45;;
51738;SDS011;37815;52.692;6.226;2022-12-07T05:14:36;1.60;;;0.40;;
51738;SDS011;37815;52.692;6.226;2022-12-07T05:19:37;1.13;;;0.40;;
51738;SDS011;37815;52.692;6.226;2022-12-07T05:24:37;1.02;;;0.50;;
51738;SDS011;37815;52.692;6.226;2022-12-07T05:29:38;4.53;;;0.50;;
51738;SDS011;37815;52.692;6.226;2022-12-07T05:34:38;3.25;;;0.25;;
51738;SDS011;37815;52.692;6.226;2022-12-07T05:39:39;1.10;;;0.25;;
51738;SDS011;37815;52.692;6.226;2022-12-07T05:44:43;2.08;;;0.35;;
51738;SDS011;37815;52.692;6.226;2022-12-07T05:49:45;2.00;;;0.38;;
51738;SDS011;37815;52.692;6.226;2022-12-07T05:54:46;3.17;;;0.45;;
51738;SDS011;37815;52.692;6.226;2022-12-07T05:59:46;2.53;;;0.35;;
51738;SDS011;37815;52.692;6.226;2022-12-07T06:04:47;3.97;;;0.63;;
51738;SDS011;37815;52.692;6.226;2022-12-07T06:09:48;3.03;;;0.60;;
51738;SDS011;37815;52.692;6.226;2022-12-07T06:14:48;1.30;;;0.30;;
51738;SDS011;37815;52.692;6.226;2022-12-07T06:19:49;2.38;;;0.47;;
51738;SDS011;37815;52.692;6.226;2022-12-07T06:24:50;0.98;;;0.30;;
51738;SDS011;37815;52.692;6.226;2022-12-07T06:29:51;1.45;;;0.40;;
51738;SDS011;37815;52.692;6.226;2022-12-07T06:34:52;1.88;;;0.40;;
51738;SDS011;37815;52.692;6.226;2022-12-07T06:39:52;1.88;;;0.40;;
51738;SDS011;37815;52.692;6.226;2022-12-07T06:44:53;3.47;;;0.63;;
51738;SDS011;37815;52.692;6.226;2022-12-07T06:49:54;5.35;;;0.43;;
51738;SDS011;37815;52.692;6.226;2022-12-07T06:54:55;2.10;;;0.40;;
51738;SDS011;37815;52.692;6.226;2022-12-07T06:59:55;1.48;;;0.57;;
51738;SDS011;37815;52.692;6.226;2022-12-07T07:04:56;1.92;;;0.30;;
51738;SDS011;37815;52.692;6.226;2022-12-07T07:09:57;2.17;;;0.43;;
51738;SDS011;37815;52.692;6.226;2022-12-07T07:14:58;2.05;;;0.60;;
51738;SDS011;37815;52.692;6.226;2022-12-07T07:19:59;2.08;;;0.52;;
51738;SDS011;37815;52.692;6.226;2022-12-07T07:24:59;1.85;;;0.30;;
51738;SDS011;37815;52.692;6.226;2022-12-07T07:30:00;1.45;;;0.40;;
51738;SDS011;37815;52.692;6.226;2022-12-07T07:35:01;0.88;;;0.30;;
51738;SDS011;37815;52.692;6.226;2022-12-07T07:40:02;3.72;;;0.43;;
51738;SDS011;37815;52.692;6.226;2022-12-07T07:45:03;1.38;;;0.40;;
51738;SDS011;37815;52.692;6.226;2022-12-07T07:50:05;2.45;;;0.55;;
51738;SDS011;37815;52.692;6.226;2022-12-07T07:55:06;1.20;;;0.50;;
51738;SDS011;37815;52.692;6.226;2022-12-07T08:00:11;1.48;;;0.70;;
51738;SDS011;37815;52.692;6.226;2022-12-07T08:05:13;3.50;;;0.70;;
51738;SDS011;37815;52.692;6.226;2022-12-07T08:10:14;4.40;;;0.88;;
51738;SDS011;37815;52.692;6.226;2022-12-07T08:15:15;2.33;;;0.47;;
51738;SDS011;37815;52.692;6.226;2022-12-07T08:20:16;2.83;;;0.68;;
51738;SDS011;37815;52.692;6.226;2022-12-07T08:25:17;3.05;;;0.50;;
51738;SDS011;37815;52.692;6.226;2022-12-07T08:30:18;1.50;;;0.93;;
51738;SDS011;37815;52.692;6.226;2022-12-07T08:35:19;3.60;;;0.80;;
51738;SDS011;37815;52.692;6.226;2022-12-07T08:40:19;1.75;;;0.47;;
51738;SDS011;37815;52.692;6.226;2022-12-07T08:45:21;1.85;;;0.40;;
51738;SDS011;37815;52.692;6.226;2022-12-07T08:50:22;0.82;;;0.47;;
51738;SDS011;37815;52.692;6.226;2022-12-07T08:55:23;2.50;;;0.82;;
51738;SDS011;37815;52.692;6.226;2022-12-07T09:00:25;2.20;;;0.60;;
51738;SDS011;37815;52.692;6.226;2022-12-07T09:05:26;1.65;;;0.65;;
51738;SDS011;37815;52.692;6.226;2022-12-07T09:10:33;1.27;;;0.60;;
51738;SDS011;37815;52.692;6.226;2022-12-07T09:15:34;1.15;;;0.50;;
51738;SDS011;37815;52.692;6.226;2022-12-07T09:20:34;3.20;;;0.63;;
51738;SDS011;37815;52.692;6.226;2022-12-07T09:25:35;1.80;;;0.60;;
51738;SDS011;37815;52.692;6.226;2022-12-07T09:30:36;2.53;;;0.80;;
51738;SDS011;37815;52.692;6.226;2022-12-07T09:35:37;6.40;;;1.13;;
51738;SDS011;37815;52.692;6.226;2022-12-07T09:40:41;3.40;;;0.98;;
51738;SDS011;37815;52.692;6.226;2022-12-07T09:45:43;4.10;;;0.80;;
51738;SDS011;37815;52.692;6.226;2022-12-07T09:50:46;4.22;;;1.25;;
51738;SDS011;37815;52.692;6.226;2022-12-07T09:55:48;3.47;;;0.85;;
51738;SDS011;37815;52.692;6.226;2022-12-07T10:00:50;4.07;;;0.90;;
51738;SDS011;37815;52.692;6.226;2022-12-07T10:05:57;5.57;;;0.95;;
51738;SDS011;37815;52.692;6.226;2022-12-07T10:10:59;3.42;;;0.85;;
51738;SDS011;37815;52.692;6.226;2022-12-07T10:16:03;4.20;;;1.00;;
51738;SDS011;37815;52.692;6.226;2022-12-07T10:26:25;3.03;;;0.75;;
51738;SDS011;37815;52.692;6.226;2022-12-07T10:31:34;2.08;;;0.80;;
51738;SDS011;37815;52.692;6.226;2022-12-07T10:36:39;1.55;;;1.30;;
51738;SDS011;37815;52.692;6.226;2022-12-07T10:41:59;2.38;;;1.08;;
51738;SDS011;37815;52.692;6.226;2022-12-07T11:03:09;12.30;;;0.98;;
51738;SDS011;37815;52.692;6.226;2022-12-07T11:19:24;4.45;;;0.68;;
51738;SDS011;37815;52.692;6.226;2022-12-07T11:30:22;3.90;;;0.80;;
51738;SDS011;37815;52.692;6.226;2022-12-07T11:41:07;4.03;;;0.80;;
51738;SDS011;37815;52.692;6.226;2022-12-07T11:46:16;2.92;;;0.85;;
51738;SDS011;37815;52.692;6.226;2022-12-07T11:51:18;4.05;;;0.93;;
51738;SDS011;37815;52.692;6.226;2022-12-07T11:56:21;4.65;;;1.30;;
51738;SDS011;37815;52.692;6.226;2022-12-07T12:06:43;5.72;;;0.82;;
51738;SDS011;37815;52.692;6.226;2022-12-07T12:11:52;1.30;;;0.70;;
51738;SDS011;37815;52.692;6.226;2022-12-07T12:22:28;3.78;;;1.20;;
51738;SDS011;37815;52.692;6.226;2022-12-07T12:27:41;3.42;;;1.27;;
51738;SDS011;37815;52.692;6.226;2022-12-07T12:32:47;4.80;;;0.98;;
51738;SDS011;37815;52.692;6.226;2022-12-07T12:37:48;6.43;;;0.90;;
51738;SDS011;37815;52.692;6.226;2022-12-07T12:42:50;9.65;;;1.52;;
51738;SDS011;37815;52.692;6.226;2022-12-07T12:47:53;4.28;;;1.00;;
51738;SDS011;37815;52.692;6.226;2022-12-07T12:58:25;3.80;;;0.93;;
51738;SDS011;37815;52.692;6.226;2022-12-07T13:03:33;4.78;;;1.45;;
51738;SDS011;37815;52.692;6.226;2022-12-07T13:08:34;2.33;;;0.80;;
51738;SDS011;37815;52.692;6.226;2022-12-07T13:13:40;3.05;;;0.98;;
51738;SDS011;37815;52.692;6.226;2022-12-07T13:18:41;3.42;;;0.93;;
51738;SDS011;37815;52.692;6.226;2022-12-07T13:34:26;5.43;;;1.17;;
51738;SDS011;37815;52.692;6.226;2022-12-07T13:39:28;1.80;;;0.95;;
51738;SDS011;37815;52.692;6.226;2022-12-07T13:44:33;2.63;;;0.88;;
51738;SDS011;37815;52.692;6.226;2022-12-07T13:49:38;1.92;;;1.10;;
51738;SDS011;37815;52.692;6.226;2022-12-07T14:00:00;6.05;;;1.02;;
51738;SDS011;37815;52.692;6.226;2022-12-07T14:05:45;1.30;;;0.80;;
51738;SDS011;37815;52.692;6.226;2022-12-07T14:10:29;2.65;;;0.90;;
51738;SDS011;37815;52.692;6.226;2022-12-07T14:15:31;4.70;;;0.88;;
51738;SDS011;37815;52.692;6.226;2022-12-07T14:20:35;1.80;;;0.50;;
51738;SDS011;37815;52.692;6.226;2022-12-07T14:25:47;3.63;;;0.98;;
51738;SDS011;37815;52.692;6.226;2022-12-07T14:30:49;1.65;;;0.70;;
51738;SDS011;37815;52.692;6.226;2022-12-07T14:35:50;2.15;;;0.80;;
51738;SDS011;37815;52.692;6.226;2022-12-07T14:40:58;5.38;;;1.10;;
51738;SDS011;37815;52.692;6.226;2022-12-07T14:46:18;1.30;;;0.80;;
51738;SDS011;37815;52.692;6.226;2022-12-07T14:51:19;3.33;;;0.90;;
51738;SDS011;37815;52.692;6.226;2022-12-07T14:56:20;1.90;;;0.68;;
51738;SDS011;37815;52.692;6.226;2022-12-07T15:01:21;0.70;;;0.65;;
51738;SDS011;37815;52.692;6.226;2022-12-07T15:06:21;4.22;;;0.85;;
51738;SDS011;37815;52.692;6.226;2022-12-07T15:11:22;2.33;;;1.17;;
51738;SDS011;37815;52.692;6.226;2022-12-07T15:16:23;3.22;;;1.27;;
51738;SDS011;37815;52.692;6.226;2022-12-07T15:21:23;2.78;;;1.17;;
51738;SDS011;37815;52.692;6.226;2022-12-07T15:26:24;2.22;;;1.15;;
51738;SDS011;37815;52.692;6.226;2022-12-07T15:31:25;5.05;;;1.30;;
51738;SDS011;37815;52.692;6.226;2022-12-07T15:36:27;8.45;;;1.67;;
51738;SDS011;37815;52.692;6.226;2022-12-07T15:41:29;4.72;;;1.10;;
51738;SDS011;37815;52.692;6.226;2022-12-07T15:46:33;4.10;;;1.25;;
51738;SDS011;37815;52.692;6.226;2022-12-07T15:51:34;3.13;;;1.05;;
51738;SDS011;37815;52.692;6.226;2022-12-07T15:56:35;6.45;;;1.50;;
51738;SDS011;37815;52.692;6.226;2022-12-07T16:01:36;5.13;;;2.30;;
51738;SDS011;37815;52.692;6.226;2022-12-07T16:06:37;6.10;;;1.73;;
51738;SDS011;37815;52.692;6.226;2022-12-07T16:11:38;8.93;;;2.35;;
51738;SDS011;37815;52.692;6.226;2022-12-07T16:16:39;3.63;;;2.03;;
51738;SDS011;37815;52.692;6.226;2022-12-07T16:21:40;3.83;;;1.98;;
51738;SDS011;37815;52.692;6.226;2022-12-07T16:26:42;3.38;;;1.65;;
51738;SDS011;37815;52.692;6.226;2022-12-07T16:31:43;4.55;;;1.45;;
51738;SDS011;37815;52.692;6.226;2022-12-07T16:36:44;5.45;;;1.65;;
51738;SDS011;37815;52.692;6.226;2022-12-07T16:41:45;6.50;;;1.70;;
51738;SDS011;37815;52.692;6.226;2022-12-07T16:46:46;4.68;;;1.90;;
51738;SDS011;37815;52.692;6.226;2022-12-07T16:51:49;3.97;;;1.90;;
51738;SDS011;37815;52.692;6.226;2022-12-07T16:56:53;3.97;;;1.80;;
51738;SDS011;37815;52.692;6.226;2022-12-07T17:01:53;3.90;;;1.85;;
51738;SDS011;37815;52.692;6.226;2022-12-07T17:06:54;5.45;;;2.13;;
51738;SDS011;37815;52.692;6.226;2022-12-07T17:11:55;4.80;;;2.10;;
51738;SDS011;37815;52.692;6.226;2022-12-07T17:16:56;4.15;;;2.15;;
51738;SDS011;37815;52.692;6.226;2022-12-07T17:21:56;7.45;;;2.40;;
51738;SDS011;37815;52.692;6.226;2022-12-07T17:26:57;4.75;;;2.13;;
51738;SDS011;37815;52.692;6.226;2022-12-07T17:31:58;5.32;;;2.20;;
51738;SDS011;37815;52.692;6.226;2022-12-07T17:36:58;3.67;;;1.83;;
51738;SDS011;37815;52.692;6.226;2022-12-07T17:41:59;6.40;;;2.38;;
51738;SDS011;37815;52.692;6.226;2022-12-07T17:47:18;3.50;;;1.90;;
51738;SDS011;37815;52.692;6.226;2022-12-07T17:52:20;5.78;;;1.88;;
51738;SDS011;37815;52.692;6.226;2022-12-07T17:57:40;4.30;;;1.58;;
51738;SDS011;37815;52.692;6.226;2022-12-07T18:02:41;4.72;;;1.55;;
51738;SDS011;37815;52.692;6.226;2022-12-07T18:07:42;2.75;;;1.65;;
51738;SDS011;37815;52.692;6.226;2022-12-07T18:12:44;5.15;;;1.98;;
51738;SDS011;37815;52.692;6.226;2022-12-07T18:17:45;4.28;;;1.77;;
51738;SDS011;37815;52.692;6.226;2022-12-07T18:22:46;3.15;;;1.73;;
51738;SDS011;37815;52.692;6.226;2022-12-07T18:27:46;4.82;;;1.88;;
51738;SDS011;37815;52.692;6.226;2022-12-07T18:32:47;3.42;;;1.75;;
51738;SDS011;37815;52.692;6.226;2022-12-07T18:37:48;3.28;;;1.60;;
51738;SDS011;37815;52.692;6.226;2022-12-07T18:42:48;3.75;;;1.75;;
51738;SDS011;37815;52.692;6.226;2022-12-07T18:47:49;4.72;;;2.03;;
51738;SDS011;37815;52.692;6.226;2022-12-07T18:52:50;2.58;;;1.40;;
51738;SDS011;37815;52.692;6.226;2022-12-07T18:57:52;3.28;;;1.73;;
51738;SDS011;37815;52.692;6.226;2022-12-07T19:02:53;6.38;;;1.80;;
51738;SDS011;37815;52.692;6.226;2022-12-07T19:07:55;3.35;;;1.30;;
51738;SDS011;37815;52.692;6.226;2022-12-07T19:12:55;3.67;;;2.00;;
51738;SDS011;37815;52.692;6.226;2022-12-07T19:17:56;3.50;;;1.88;;
51738;SDS011;37815;52.692;6.226;2022-12-07T19:22:57;3.47;;;1.70;;
51738;SDS011;37815;52.692;6.226;2022-12-07T19:27:58;5.07;;;1.92;;
51738;SDS011;37815;52.692;6.226;2022-12-07T19:32:59;5.03;;;1.67;;
51738;SDS011;37815;52.692;6.226;2022-12-07T19:37:59;6.78;;;2.17;;
51738;SDS011;37815;52.692;6.226;2022-12-07T19:43:00;5.40;;;1.60;;
51738;SDS011;37815;52.692;6.226;2022-12-07T19:48:01;4.32;;;2.10;;
51738;SDS011;37815;52.692;6.226;2022-12-07T19:53:02;4.95;;;1.88;;
51738;SDS011;37815;52.692;6.226;2022-12-07T19:58:04;3.85;;;1.50;;
51738;SDS011;37815;52.692;6.226;2022-12-07T20:03:05;3.65;;;1.60;;
51738;SDS011;37815;52.692;6.226;2022-12-07T20:08:05;4.32;;;1.30;;
51738;SDS011;37815;52.692;6.226;2022-12-07T20:13:07;3.88;;;1.50;;
51738;SDS011;37815;52.692;6.226;2022-12-07T20:18:26;4.20;;;1.45;;
51738;SDS011;37815;52.692;6.226;2022-12-07T20:23:27;3.28;;;1.50;;
51738;SDS011;37815;52.692;6.226;2022-12-07T20:28:28;3.65;;;1.60;;
51738;SDS011;37815;52.692;6.226;2022-12-07T20:33:31;3.20;;;1.45;;
51738;SDS011;37815;52.692;6.226;2022-12-07T20:38:32;3.53;;;1.48;;
51738;SDS011;37815;52.692;6.226;2022-12-07T20:43:33;2.58;;;1.38;;
51738;SDS011;37815;52.692;6.226;2022-12-07T20:48:33;2.20;;;1.30;;
51738;SDS011;37815;52.692;6.226;2022-12-07T20:53:34;1.77;;;1.10;;
51738;SDS011;37815;52.692;6.226;2022-12-07T20:58:35;1.80;;;1.17;;
51738;SDS011;37815;52.692;6.226;2022-12-07T21:03:36;3.15;;;1.45;;
51738;SDS011;37815;52.692;6.226;2022-12-07T21:08:36;3.20;;;1.30;;
51738;SDS011;37815;52.692;6.226;2022-12-07T21:13:37;3.55;;;1.40;;
51738;SDS011;37815;52.692;6.226;2022-12-07T21:18:38;1.70;;;0.98;;
51738;SDS011;37815;52.692;6.226;2022-12-07T21:23:39;3.92;;;1.30;;
51738;SDS011;37815;52.692;6.226;2022-12-07T21:28:40;3.17;;;1.08;;
51738;SDS011;37815;52.692;6.226;2022-12-07T21:33:41;3.00;;;1.10;;
51738;SDS011;37815;52.692;6.226;2022-12-07T21:38:45;2.33;;;1.10;;
51738;SDS011;37815;52.692;6.226;2022-12-07T21:43:46;1.73;;;1.10;;
51738;SDS011;37815;52.692;6.226;2022-12-07T21:48:53;1.98;;;0.77;;
51738;SDS011;37815;52.692;6.226;2022-12-07T21:53:55;2.15;;;0.95;;
51738;SDS011;37815;52.692;6.226;2022-12-07T21:59:01;2.05;;;1.42;;
51738;SDS011;37815;52.692;6.226;2022-12-07T22:04:05;2.17;;;1.00;;
51738;SDS011;37815;52.692;6.226;2022-12-07T22:09:06;2.92;;;0.90;;
51738;SDS011;37815;52.692;6.226;2022-12-07T22:14:08;4.03;;;1.02;;
51738;SDS011;37815;52.692;6.226;2022-12-07T22:19:28;2.58;;;1.10;;
51738;SDS011;37815;52.692;6.226;2022-12-07T22:24:28;2.08;;;1.10;;
51738;SDS011;37815;52.692;6.226;2022-12-07T22:29:29;2.10;;;1.13;;
51738;SDS011;37815;52.692;6.226;2022-12-07T22:34:30;2.92;;;0.95;;
51738;SDS011;37815;52.692;6.226;2022-12-07T22:39:31;3.42;;;0.90;;
51738;SDS011;37815;52.692;6.226;2022-12-07T22:44:31;2.25;;;0.85;;
51738;SDS011;37815;52.692;6.226;2022-12-07T22:49:32;4.20;;;1.02;;
51738;SDS011;37815;52.692;6.226;2022-12-07T22:54:33;2.75;;;0.88;;
51738;SDS011;37815;52.692;6.226;2022-12-07T22:59:34;2.13;;;1.08;;
51738;SDS011;37815;52.692;6.226;2022-12-07T23:04:35;2.33;;;1.00;;
51738;SDS011;37815;52.692;6.226;2022-12-07T23:09:35;3.97;;;1.83;;
51738;SDS011;37815;52.692;6.226;2022-12-07T23:14:36;1.35;;;0.75;;
51738;SDS011;37815;52.692;6.226;2022-12-07T23:19:37;5.55;;;0.80;;
51738;SDS011;37815;52.692;6.226;2022-12-07T23:24:38;4.97;;;1.10;;
51738;SDS011;37815;52.692;6.226;2022-12-07T23:29:38;1.55;;;0.73;;
51738;SDS011;37815;52.692;6.226;2022-12-07T23:34:39;1.95;;;0.70;;
51738;SDS011;37815;52.692;6.226;2022-12-07T23:39:42;1.73;;;0.55;;
51738;SDS011;37815;52.692;6.226;2022-12-07T23:44:43;3.38;;;0.70;;
51738;SDS011;37815;52.692;6.226;2022-12-07T23:49:43;1.77;;;0.63;;
51738;SDS011;37815;52.692;6.226;2022-12-07T23:54:44;2.80;;;0.70;;
51738;SDS011;37815;52.692;6.226;2022-12-07T23:59:44;1.48;;;0.70;;
